Time;durP1;ratioP1;P1;durP2;ratioP2;P2;SDS_P1;SDS_P2;PMS_P1;PMS_P2;Temp;Humidity;BMP_temperature;BMP_pressure;BME280_temperature;BME280_humidity;BME280_pressure;Samples;Min_cycle;Max_cycle;Signal;HPM_P1;HPM_P2
2022/06/30 00:01:31;;;;;;;7.00;2.10;;;;;;;;;;5021280;28;20412;-63
2022/06/30 00:03:57;;;;;;;14.05;2.60;;;;;;;;;;5021530;28;20503;-61
2022/06/30 00:06:23;;;;;;;8.02;2.38;;;;;;;;;;5022977;28;20058;-60
2022/06/30 00:08:49;;;;;;;11.95;2.53;;;;;;;;;;5023039;28;20049;-59
2022/06/30 00:11:15;;;;;;;9.27;2.20;;;;;;;;;;5022877;28;20056;-61
2022/06/30 00:13:41;;;;;;;10.57;2.63;;;;;;;;;;5023718;28;20050;-59
2022/06/30 00:16:08;;;;;;;8.95;2.42;;;;;;;;;;5023677;28;20104;-61
2022/06/30 00:18:35;;;;;;;6.97;2.00;;;;;;;;;;5023816;28;20049;-59
2022/06/30 00:21:01;;;;;;;9.10;2.83;;;;;;;;;;5026801;28;20048;-60
2022/06/30 00:23:27;;;;;;;10.32;2.40;;;;;;;;;;5024084;28;20041;-61
2022/06/30 00:25:52;;;;;;;12.93;2.92;;;;;;;;;;5023787;28;20071;-60
2022/06/30 00:28:19;;;;;;;8.23;2.40;;;;;;;;;;5019030;28;20053;-61
2022/06/30 00:30:46;;;;;;;8.43;2.42;;;;;;;;;;5026102;28;20546;-63
2022/06/30 00:33:12;;;;;;;10.10;2.60;;;;;;;;;;5022988;28;20068;-60
2022/06/30 00:35:38;;;;;;;10.25;2.88;;;;;;;;;;5024573;28;20511;-62
2022/06/30 00:38:04;;;;;;;10.25;2.10;;;;;;;;;;5020462;28;20045;-60
2022/06/30 00:40:41;;;;;;;9.25;2.35;;;;;;;;;;5023194;28;20467;-62
2022/06/30 00:43:07;;;;;;;6.28;2.15;;;;;;;;;;5024998;28;20057;-62
2022/06/30 00:45:43;;;;;;;9.85;2.58;;;;;;;;;;5024819;28;20049;-62
2022/06/30 00:48:11;;;;;;;10.23;2.30;;;;;;;;;;5023117;28;20050;-60
2022/06/30 00:50:37;;;;;;;9.18;2.22;;;;;;;;;;5024842;28;20559;-59
2022/06/30 00:53:04;;;;;;;13.25;2.40;;;;;;;;;;5023724;28;20484;-61
2022/06/30 00:55:31;;;;;;;9.05;3.08;;;;;;;;;;5024159;28;20093;-61
2022/06/30 00:58:03;;;;;;;10.25;2.00;;;;;;;;;;5022827;28;20101;-63
2022/06/30 01:00:32;;;;;;;13.13;2.30;;;;;;;;;;5024841;28;20049;-62
2022/06/30 01:02:59;;;;;;;8.27;2.30;;;;;;;;;;5025467;28;20037;-61
2022/06/30 01:05:26;;;;;;;8.77;2.45;;;;;;;;;;5024165;28;20060;-62
2022/06/30 01:07:53;;;;;;;9.18;2.28;;;;;;;;;;5021542;28;20041;-61
2022/06/30 01:13:05;;;;;;;11.15;2.20;;;;;;;;;;5023184;28;20060;-63
2022/06/30 01:15:31;;;;;;;16.50;2.50;;;;;;;;;;5021448;28;20076;-60
2022/06/30 01:17:57;;;;;;;9.93;2.15;;;;;;;;;;5022998;28;20099;-59
2022/06/30 01:20:31;;;;;;;8.75;2.35;;;;;;;;;;5022794;28;20625;-61
2022/06/30 01:22:59;;;;;;;10.82;2.50;;;;;;;;;;5023371;28;20379;-60
2022/06/30 01:25:25;;;;;;;7.97;2.20;;;;;;;;;;5025440;28;20048;-60
2022/06/30 01:27:52;;;;;;;11.25;2.15;;;;;;;;;;5021279;28;20045;-60
2022/06/30 01:30:18;;;;;;;9.45;2.50;;;;;;;;;;5023839;28;21568;-60
2022/06/30 01:32:44;;;;;;;9.45;2.60;;;;;;;;;;5021398;28;20045;-60
2022/06/30 01:35:10;;;;;;;10.48;2.30;;;;;;;;;;5024257;28;20061;-60
2022/06/30 01:37:51;;;;;;;11.57;2.65;;;;;;;;;;5020595;28;20053;-59
2022/06/30 01:40:18;;;;;;;9.15;2.03;;;;;;;;;;5022770;28;20048;-59
2022/06/30 01:42:44;;;;;;;11.05;2.13;;;;;;;;;;5021476;28;20531;-59
2022/06/30 01:45:11;;;;;;;9.65;2.13;;;;;;;;;;5024453;28;20107;-61
2022/06/30 01:47:36;;;;;;;4.40;1.83;;;;;;;;;;5025075;28;20046;-61
2022/06/30 01:50:06;;;;;;;7.88;2.05;;;;;;;;;;5022801;28;20170;-60
2022/06/30 01:52:32;;;;;;;7.32;1.98;;;;;;;;;;5025081;28;20124;-60
2022/06/30 01:54:58;;;;;;;8.48;2.40;;;;;;;;;;5025326;28;20602;-59
2022/06/30 01:57:24;;;;;;;7.75;1.85;;;;;;;;;;5021761;28;20350;-59
2022/06/30 01:59:50;;;;;;;6.70;1.95;;;;;;;;;;5022156;28;20053;-60
2022/06/30 02:02:16;;;;;;;5.18;1.85;;;;;;;;;;5021860;28;20099;-60
2022/06/30 02:04:48;;;;;;;8.05;1.98;;;;;;;;;;5023275;28;20067;-60
2022/06/30 02:07:14;;;;;;;6.38;1.98;;;;;;;;;;5020139;28;20368;-60
2022/06/30 02:09:41;;;;;;;8.40;2.00;;;;;;;;;;5025914;28;20471;-61
2022/06/30 02:14:52;;;;;;;8.90;2.55;;;;;;;;;;5021380;28;20069;-59
2022/06/30 02:17:18;;;;;;;11.95;2.08;;;;;;;;;;5021156;28;20057;-61
2022/06/30 02:19:43;;;;;;;6.75;1.92;;;;;;;;;;5022073;28;20487;-64
2022/06/30 02:22:09;;;;;;;6.10;1.90;;;;;;;;;;5021634;28;20077;-59
2022/06/30 02:24:36;;;;;;;10.10;1.90;;;;;;;;;;5023555;28;20419;-60
2022/06/30 02:27:02;;;;;;;9.65;2.63;;;;;;;;;;5019107;28;20505;-61
2022/06/30 02:29:27;;;;;;;8.30;2.00;;;;;;;;;;5023639;28;20057;-61
2022/06/30 02:31:53;;;;;;;9.77;2.30;;;;;;;;;;5021109;28;20498;-60
2022/06/30 02:34:19;;;;;;;4.82;2.08;;;;;;;;;;5025555;28;20231;-59
2022/06/30 02:36:45;;;;;;;10.00;2.40;;;;;;;;;;5023204;28;20057;-63
2022/06/30 02:39:11;;;;;;;12.88;2.58;;;;;;;;;;5021696;28;20419;-64
2022/06/30 02:41:37;;;;;;;6.30;2.17;;;;;;;;;;5021122;28;20273;-60
2022/06/30 02:44:03;;;;;;;8.93;2.10;;;;;;;;;;5020262;28;20045;-59
2022/06/30 02:46:29;;;;;;;6.95;2.15;;;;;;;;;;5021386;28;20064;-60
2022/06/30 02:48:55;;;;;;;9.52;2.20;;;;;;;;;;5019063;28;20376;-62
2022/06/30 02:51:21;;;;;;;9.98;2.28;;;;;;;;;;5020643;28;20112;-60
2022/06/30 02:53:47;;;;;;;9.20;2.13;;;;;;;;;;5023776;28;20576;-62
2022/06/30 02:56:13;;;;;;;10.65;2.55;;;;;;;;;;5024383;28;20053;-60
2022/06/30 02:58:39;;;;;;;7.18;2.25;;;;;;;;;;5024031;28;20064;-60
2022/06/30 03:01:05;;;;;;;9.10;2.22;;;;;;;;;;5021791;28;20042;-60
2022/06/30 03:03:31;;;;;;;9.98;2.30;;;;;;;;;;5022708;28;20049;-60
2022/06/30 03:05:57;;;;;;;9.80;2.55;;;;;;;;;;5021367;28;20492;-61
2022/06/30 03:08:23;;;;;;;11.82;2.67;;;;;;;;;;5018111;28;20045;-61
2022/06/30 03:10:49;;;;;;;9.75;2.30;;;;;;;;;;5022313;28;20099;-62
2022/06/30 03:13:15;;;;;;;10.10;2.25;;;;;;;;;;5019565;28;20065;-59
2022/06/30 03:15:41;;;;;;;9.88;2.40;;;;;;;;;;5020227;28;20057;-63
2022/06/30 03:18:08;;;;;;;8.00;2.40;;;;;;;;;;5019877;28;20049;-59
2022/06/30 03:20:34;;;;;;;9.88;2.10;;;;;;;;;;5024216;28;20053;-61
2022/06/30 03:23:00;;;;;;;10.32;3.13;;;;;;;;;;5022806;28;20483;-60
2022/06/30 03:25:25;;;;;;;9.60;2.30;;;;;;;;;;5022891;28;20057;-60
2022/06/30 03:27:51;;;;;;;8.40;2.40;;;;;;;;;;5019704;28;20053;-60
2022/06/30 03:30:17;;;;;;;8.25;2.22;;;;;;;;;;5020705;28;20384;-61
2022/06/30 03:32:43;;;;;;;13.93;2.55;;;;;;;;;;5021170;28;20061;-60
2022/06/30 03:35:09;;;;;;;8.57;2.70;;;;;;;;;;5020979;28;20080;-61
2022/06/30 03:37:35;;;;;;;9.32;2.28;;;;;;;;;;5019916;28;20099;-61
2022/06/30 03:40:01;;;;;;;10.15;2.70;;;;;;;;;;5021903;28;20045;-60
2022/06/30 03:42:27;;;;;;;6.93;2.30;;;;;;;;;;5022336;28;20430;-60
2022/06/30 03:44:53;;;;;;;8.23;2.42;;;;;;;;;;5023453;28;20077;-60
2022/06/30 03:47:19;;;;;;;7.40;2.28;;;;;;;;;;5019777;28;20092;-60
2022/06/30 03:49:44;;;;;;;15.93;2.95;;;;;;;;;;5019415;28;20078;-59
2022/06/30 03:52:10;;;;;;;8.68;2.40;;;;;;;;;;5019999;28;20053;-61
2022/06/30 03:54:37;;;;;;;9.32;2.63;;;;;;;;;;5021220;28;20053;-59
2022/06/30 03:57:03;;;;;;;9.25;2.30;;;;;;;;;;5017631;28;20115;-59
2022/06/30 03:59:29;;;;;;;11.00;2.80;;;;;;;;;;5020617;28;20489;-61
2022/06/30 04:01:55;;;;;;;7.78;2.28;;;;;;;;;;5019055;28;20137;-61
2022/06/30 04:04:21;;;;;;;10.25;2.28;;;;;;;;;;5021750;28;20057;-59
2022/06/30 04:06:47;;;;;;;8.93;2.72;;;;;;;;;;5020008;28;20050;-60
2022/06/30 04:09:13;;;;;;;8.25;2.75;;;;;;;;;;5022028;28;20049;-60
2022/06/30 04:11:39;;;;;;;9.73;2.80;;;;;;;;;;5020056;28;20053;-62
2022/06/30 04:14:04;;;;;;;14.10;2.80;;;;;;;;;;5021489;28;20303;-61
2022/06/30 04:16:30;;;;;;;7.22;2.85;;;;;;;;;;5021665;28;20042;-59
2022/06/30 04:18:56;;;;;;;7.35;2.50;;;;;;;;;;5021425;28;20491;-59
2022/06/30 04:21:22;;;;;;;11.60;2.70;;;;;;;;;;5021660;28;20430;-60
2022/06/30 04:23:48;;;;;;;9.80;3.00;;;;;;;;;;5021298;28;20057;-61
2022/06/30 04:26:13;;;;;;;10.00;2.70;;;;;;;;;;5021016;28;20053;-61
2022/06/30 04:28:39;;;;;;;7.53;2.50;;;;;;;;;;5018074;28;20064;-60
2022/06/30 04:33:50;;;;;;;12.00;2.72;;;;;;;;;;5020883;28;20050;-60
2022/06/30 04:36:16;;;;;;;14.77;3.08;;;;;;;;;;5020360;28;20067;-61
2022/06/30 04:38:41;;;;;;;10.18;2.72;;;;;;;;;;5019102;28;20053;-60
2022/06/30 04:41:25;;;;;;;16.63;2.80;;;;;;;;;;5019529;28;20577;-59
2022/06/30 04:43:56;;;;;;;9.43;3.17;;;;;;;;;;5019458;28;21369;-59
2022/06/30 04:46:23;;;;;;;13.10;3.08;;;;;;;;;;5022905;28;20760;-59
2022/06/30 04:48:49;;;;;;;7.70;3.13;;;;;;;;;;5024090;28;20491;-60
2022/06/30 04:51:15;;;;;;;12.80;2.97;;;;;;;;;;5022062;28;20128;-62
2022/06/30 04:53:42;;;;;;;9.48;2.75;;;;;;;;;;5021063;28;20049;-59
2022/06/30 04:56:09;;;;;;;10.10;2.72;;;;;;;;;;5024121;28;20045;-64
2022/06/30 04:58:35;;;;;;;8.13;2.75;;;;;;;;;;5023096;28;20068;-61
2022/06/30 05:01:02;;;;;;;12.68;2.83;;;;;;;;;;5022876;28;20592;-63
2022/06/30 05:03:29;;;;;;;9.88;2.67;;;;;;;;;;5020385;28;20050;-60
2022/06/30 05:05:55;;;;;;;9.43;2.85;;;;;;;;;;5025106;28;20052;-62
2022/06/30 05:08:21;;;;;;;7.78;2.40;;;;;;;;;;5024272;28;20450;-59
2022/06/30 05:10:47;;;;;;;10.40;2.65;;;;;;;;;;5024307;28;20574;-61
2022/06/30 05:13:13;;;;;;;8.30;2.95;;;;;;;;;;5022010;28;20054;-61
2022/06/30 05:15:39;;;;;;;10.88;3.00;;;;;;;;;;5024810;28;20049;-61
2022/06/30 05:18:05;;;;;;;13.52;3.15;;;;;;;;;;5022935;28;20186;-66
2022/06/30 05:20:32;;;;;;;16.60;3.38;;;;;;;;;;5023290;28;20132;-62
2022/06/30 05:22:58;;;;;;;10.57;2.83;;;;;;;;;;5020804;28;20104;-61
2022/06/30 05:28:09;;;;;;;15.18;3.40;;;;;;;;;;5021798;28;20049;-61
2022/06/30 05:30:35;;;;;;;12.60;3.47;;;;;;;;;;5021795;28;20049;-61
2022/06/30 05:33:01;;;;;;;15.40;3.17;;;;;;;;;;5021320;28;20042;-61
2022/06/30 05:35:27;;;;;;;11.80;3.22;;;;;;;;;;5022916;28;20057;-62
2022/06/30 05:37:53;;;;;;;9.68;3.10;;;;;;;;;;5019493;28;20672;-65
2022/06/30 05:40:18;;;;;;;11.88;3.40;;;;;;;;;;5020188;28;20056;-63
2022/06/30 05:42:45;;;;;;;10.85;3.40;;;;;;;;;;5019017;28;20136;-60
2022/06/30 05:45:11;;;;;;;13.07;3.33;;;;;;;;;;5023284;28;20326;-61
2022/06/30 05:47:47;;;;;;;13.93;3.17;;;;;;;;;;5024038;28;20054;-66
2022/06/30 05:50:14;;;;;;;16.25;3.70;;;;;;;;;;5024127;28;20129;-61
2022/06/30 05:52:41;;;;;;;14.25;3.30;;;;;;;;;;5026033;28;20045;-60
2022/06/30 05:55:08;;;;;;;13.50;3.60;;;;;;;;;;5026020;28;20121;-61
2022/06/30 05:57:45;;;;;;;19.10;3.30;;;;;;;;;;5020962;28;20049;-62
2022/06/30 06:00:12;;;;;;;10.20;3.38;;;;;;;;;;5023976;28;20042;-63
2022/06/30 06:02:38;;;;;;;9.30;2.97;;;;;;;;;;5024962;28;20052;-63
2022/06/30 06:05:04;;;;;;;12.07;3.10;;;;;;;;;;5026470;28;20050;-62
2022/06/30 06:07:30;;;;;;;10.68;3.15;;;;;;;;;;5023905;28;20341;-63
2022/06/30 06:09:56;;;;;;;13.20;3.38;;;;;;;;;;5026190;28;20049;-63
2022/06/30 06:12:22;;;;;;;12.57;3.40;;;;;;;;;;5021187;28;20154;-64
2022/06/30 06:14:48;;;;;;;14.40;3.58;;;;;;;;;;5027211;28;20093;-64
2022/06/30 06:17:14;;;;;;;10.27;3.05;;;;;;;;;;5022030;28;20053;-62
2022/06/30 06:19:41;;;;;;;13.85;3.17;;;;;;;;;;5024189;28;20042;-67
2022/06/30 06:22:07;;;;;;;12.80;3.47;;;;;;;;;;5016918;28;20499;-63
2022/06/30 06:24:33;;;;;;;9.60;3.00;;;;;;;;;;5018888;28;20041;-63
2022/06/30 06:26:59;;;;;;;9.27;3.00;;;;;;;;;;5020304;28;20041;-62
2022/06/30 06:29:24;;;;;;;10.90;3.00;;;;;;;;;;5022100;28;20065;-62
2022/06/30 06:31:50;;;;;;;18.30;3.38;;;;;;;;;;5018935;28;20049;-62
2022/06/30 06:34:16;;;;;;;12.77;3.45;;;;;;;;;;5022642;28;20050;-61
2022/06/30 06:36:42;;;;;;;12.25;3.00;;;;;;;;;;5019629;28;20053;-61
2022/06/30 06:39:08;;;;;;;13.98;3.05;;;;;;;;;;5017343;28;20490;-60
2022/06/30 06:41:34;;;;;;;16.55;3.45;;;;;;;;;;5021106;28;20045;-60
2022/06/30 06:44:00;;;;;;;10.07;2.90;;;;;;;;;;5021463;28;20075;-61
2022/06/30 06:46:26;;;;;;;12.35;2.97;;;;;;;;;;5023063;28;20422;-64
2022/06/30 06:48:54;;;;;;;11.93;3.22;;;;;;;;;;5021390;28;20054;-62
2022/06/30 06:51:20;;;;;;;10.85;2.95;;;;;;;;;;5019870;28;20053;-62
2022/06/30 06:53:46;;;;;;;11.52;2.78;;;;;;;;;;5019665;28;20085;-63
2022/06/30 06:56:11;;;;;;;14.50;3.05;;;;;;;;;;5018146;28;20063;-64
2022/06/30 06:58:37;;;;;;;18.88;3.88;;;;;;;;;;5019454;28;20057;-61
2022/06/30 07:01:04;;;;;;;18.05;3.88;;;;;;;;;;5018774;28;20056;-65
2022/06/30 07:03:31;;;;;;;11.95;3.20;;;;;;;;;;5011960;28;20063;-63
2022/06/30 07:05:58;;;;;;;8.48;3.65;;;;;;;;;;5018540;28;20578;-62
2022/06/30 07:08:24;;;;;;;15.40;3.28;;;;;;;;;;5015820;28;20092;-62
2022/06/30 07:10:50;;;;;;;19.95;3.28;;;;;;;;;;5014008;28;20447;-62
2022/06/30 07:13:16;;;;;;;14.70;2.65;;;;;;;;;;5014825;28;20518;-64
2022/06/30 07:15:42;;;;;;;10.38;2.97;;;;;;;;;;5027735;28;20060;-66
2022/06/30 07:18:07;;;;;;;18.50;2.88;;;;;;;;;;5025878;28;20509;-65
2022/06/30 07:20:33;;;;;;;10.25;2.90;;;;;;;;;;5024875;28;20517;-62
2022/06/30 07:22:59;;;;;;;9.05;3.53;;;;;;;;;;5027020;28;20490;-65
2022/06/30 07:25:25;;;;;;;13.18;2.75;;;;;;;;;;5022689;28;20041;-63
2022/06/30 07:27:51;;;;;;;17.00;3.00;;;;;;;;;;5019291;28;20045;-63
2022/06/30 07:30:17;;;;;;;13.13;3.10;;;;;;;;;;5026548;28;20052;-62
2022/06/30 07:32:43;;;;;;;9.95;2.90;;;;;;;;;;5024441;28;20049;-65
2022/06/30 07:35:10;;;;;;;13.40;2.65;;;;;;;;;;5026759;28;20072;-62
2022/06/30 07:37:40;;;;;;;11.40;2.83;;;;;;;;;;5029297;28;20240;-64
2022/06/30 07:40:07;;;;;;;12.60;2.83;;;;;;;;;;5029187;28;20092;-65
2022/06/30 07:42:33;;;;;;;12.68;2.63;;;;;;;;;;5026102;28;20499;-70
2022/06/30 07:44:59;;;;;;;8.27;2.40;;;;;;;;;;5027893;28;20084;-64
2022/06/30 07:47:25;;;;;;;8.75;2.33;;;;;;;;;;5027217;28;20573;-63
2022/06/30 07:49:51;;;;;;;10.48;2.95;;;;;;;;;;5027857;28;20041;-63
2022/06/30 07:52:17;;;;;;;11.63;3.25;;;;;;;;;;5025879;28;20050;-63
2022/06/30 07:54:43;;;;;;;10.07;2.83;;;;;;;;;;5027935;28;20045;-62
2022/06/30 07:57:09;;;;;;;12.57;3.03;;;;;;;;;;5025233;28;20098;-64
2022/06/30 07:59:35;;;;;;;7.40;2.53;;;;;;;;;;5026220;28;20487;-63
2022/06/30 08:02:01;;;;;;;9.07;3.00;;;;;;;;;;5023576;28;20046;-65
2022/06/30 08:04:27;;;;;;;12.60;2.90;;;;;;;;;;5026292;28;20045;-64
2022/06/30 08:06:53;;;;;;;13.23;2.92;;;;;;;;;;5024119;28;20095;-65
2022/06/30 08:09:19;;;;;;;8.60;2.45;;;;;;;;;;5023956;28;20073;-62
2022/06/30 08:11:45;;;;;;;22.05;5.80;;;;;;;;;;5025952;28;20137;-65
2022/06/30 08:14:11;;;;;;;53.25;16.77;;;;;;;;;;5027512;28;20175;-63
2022/06/30 08:16:36;;;;;;;21.77;5.90;;;;;;;;;;5028646;28;20073;-63
2022/06/30 08:19:03;;;;;;;32.50;10.70;;;;;;;;;;5028788;28;20048;-61
2022/06/30 08:21:29;;;;;;;11.05;3.25;;;;;;;;;;5030997;28;20110;-62
2022/06/30 08:23:55;;;;;;;17.65;4.57;;;;;;;;;;5030173;28;20045;-62
2022/06/30 08:26:21;;;;;;;8.93;3.40;;;;;;;;;;5031074;28;20053;-65
2022/06/30 08:28:49;;;;;;;14.05;3.92;;;;;;;;;;5030041;28;20067;-62
2022/06/30 08:31:16;;;;;;;11.73;3.30;;;;;;;;;;5030374;28;20057;-63
2022/06/30 08:33:42;;;;;;;9.93;2.80;;;;;;;;;;5030710;28;20136;-63
2022/06/30 08:36:08;;;;;;;11.38;3.13;;;;;;;;;;5030294;28;20053;-62
2022/06/30 08:38:34;;;;;;;10.05;3.10;;;;;;;;;;5030759;28;20069;-64
2022/06/30 08:43:46;;;;;;;11.52;3.25;;;;;;;;;;5027011;28;20103;-65
2022/06/30 08:46:13;;;;;;;11.60;3.58;;;;;;;;;;5030976;28;20055;-64
2022/06/30 08:48:39;;;;;;;10.65;3.25;;;;;;;;;;5031415;28;20045;-64
2022/06/30 08:51:06;;;;;;;13.05;3.72;;;;;;;;;;5058977;28;20483;-64
2022/06/30 08:53:44;;;;;;;19.35;4.93;;;;;;;;;;5029372;28;20057;-66
2022/06/30 08:56:10;;;;;;;12.15;3.13;;;;;;;;;;5025946;28;20124;-65
2022/06/30 08:58:38;;;;;;;11.98;3.63;;;;;;;;;;5028451;28;20103;-67
2022/06/30 09:01:05;;;;;;;9.80;3.30;;;;;;;;;;5026386;28;20045;-68
2022/06/30 09:03:34;;;;;;;10.70;3.40;;;;;;;;;;5029714;28;20464;-65
2022/06/30 09:06:00;;;;;;;15.13;3.45;;;;;;;;;;5028944;28;20095;-66
2022/06/30 09:08:26;;;;;;;19.10;3.90;;;;;;;;;;5021590;28;20041;-65
2022/06/30 09:10:54;;;;;;;17.63;3.67;;;;;;;;;;5026112;28;20556;-66
2022/06/30 09:13:21;;;;;;;13.80;3.60;;;;;;;;;;5026763;28;20064;-66
2022/06/30 09:15:49;;;;;;;10.55;3.03;;;;;;;;;;5027241;28;20507;-67
2022/06/30 09:18:41;;;;;;;12.23;3.13;;;;;;;;;;5028772;28;20048;-65
2022/06/30 09:21:18;;;;;;;8.23;2.75;;;;;;;;;;5027504;28;20047;-67
2022/06/30 09:23:46;;;;;;;8.98;2.55;;;;;;;;;;5030552;28;20111;-66
2022/06/30 09:26:20;;;;;;;11.43;2.60;;;;;;;;;;5024372;28;20403;-65
2022/06/30 09:28:46;;;;;;;13.30;2.90;;;;;;;;;;5025887;28;20037;-66
2022/06/30 09:31:29;;;;;;;10.75;3.00;;;;;;;;;;5027751;28;20048;-64
2022/06/30 09:33:55;;;;;;;12.05;3.53;;;;;;;;;;5028702;28;20132;-65
2022/06/30 09:36:27;;;;;;;11.05;3.03;;;;;;;;;;5029171;28;20195;-66
2022/06/30 09:39:08;;;;;;;9.82;3.05;;;;;;;;;;5028781;28;20102;-66
2022/06/30 09:41:38;;;;;;;12.13;2.63;;;;;;;;;;5027108;28;20054;-65
2022/06/30 09:44:06;;;;;;;8.13;2.70;;;;;;;;;;5024869;28;20045;-67
2022/06/30 09:46:36;;;;;;;8.13;2.63;;;;;;;;;;5028225;28;20056;-66
2022/06/30 09:49:03;;;;;;;6.68;2.65;;;;;;;;;;5030078;28;20120;-65
2022/06/30 09:51:40;;;;;;;10.52;2.80;;;;;;;;;;5033801;28;20072;-68
2022/06/30 09:54:10;;;;;;;6.70;2.30;;;;;;;;;;5033402;28;20057;-65
2022/06/30 09:56:37;;;;;;;7.97;2.60;;;;;;;;;;5030636;28;20603;-69
2022/06/30 09:59:07;;;;;;;9.65;2.63;;;;;;;;;;5029042;28;20395;-70
2022/06/30 10:01:49;;;;;;;10.80;3.10;;;;;;;;;;5029994;28;20045;-66
2022/06/30 10:04:17;;;;;;;12.55;2.65;;;;;;;;;;5025883;28;20099;-67
2022/06/30 10:06:44;;;;;;;7.90;2.67;;;;;;;;;;5029206;28;20128;-65
2022/06/30 10:09:16;;;;;;;10.48;2.63;;;;;;;;;;5030988;28;21120;-65
2022/06/30 10:11:43;;;;;;;14.48;3.15;;;;;;;;;;5029211;28;20467;-65
2022/06/30 10:14:11;;;;;;;9.80;2.80;;;;;;;;;;5030542;28;20049;-66
2022/06/30 10:16:41;;;;;;;11.27;3.00;;;;;;;;;;5029298;28;20084;-66
2022/06/30 10:19:12;;;;;;;10.77;2.47;;;;;;;;;;5025574;28;20748;-66
2022/06/30 10:21:39;;;;;;;9.75;2.50;;;;;;;;;;5026236;28;20125;-64
2022/06/30 10:24:06;;;;;;;8.70;2.90;;;;;;;;;;5027832;28;20098;-65
2022/06/30 10:29:19;;;;;;;9.70;2.58;;;;;;;;;;5026434;28;20520;-66
2022/06/30 10:32:07;;;;;;;9.15;2.70;;;;;;;;;;5030380;28;20057;-65
2022/06/30 10:34:39;;;;;;;11.05;2.45;;;;;;;;;;5028655;28;20041;-66
2022/06/30 10:37:20;;;;;;;12.52;3.13;;;;;;;;;;5022321;28;20049;-66
2022/06/30 10:40:08;;;;;;;9.52;2.97;;;;;;;;;;5023795;28;20047;-65
2022/06/30 10:42:48;;;;;;;9.95;2.17;;;;;;;;;;5017459;28;20069;-67
2022/06/30 10:45:26;;;;;;;7.70;2.42;;;;;;;;;;5024557;28;20045;-66
2022/06/30 10:48:01;;;;;;;7.40;1.88;;;;;;;;;;5016412;28;20511;-68
2022/06/30 10:50:38;;;;;;;7.13;2.42;;;;;;;;;;5018638;28;20103;-65
2022/06/30 10:53:06;;;;;;;10.13;2.72;;;;;;;;;;5024804;28;20452;-65
2022/06/30 10:55:53;;;;;;;11.38;2.65;;;;;;;;;;5024635;28;20511;-71
2022/06/30 10:58:21;;;;;;;10.95;2.47;;;;;;;;;;5025067;28;20052;-65
2022/06/30 11:01:01;;;;;;;7.85;2.90;;;;;;;;;;5024839;28;20051;-65
2022/06/30 11:03:33;;;;;;;10.90;3.33;;;;;;;;;;5021136;28;20136;-65
2022/06/30 11:06:07;;;;;;;11.63;3.10;;;;;;;;;;5025920;28;20041;-64
2022/06/30 11:08:36;;;;;;;7.70;2.30;;;;;;;;;;5021783;28;20037;-65
2022/06/30 11:11:22;;;;;;;13.80;2.75;;;;;;;;;;5021367;28;20049;-66
2022/06/30 11:14:03;;;;;;;10.95;2.30;;;;;;;;;;5017531;28;20052;-67
2022/06/30 11:16:39;;;;;;;6.78;2.10;;;;;;;;;;5027012;28;20481;-64
2022/06/30 11:19:14;;;;;;;9.02;2.50;;;;;;;;;;5022158;28;20045;-66
2022/06/30 11:21:45;;;;;;;17.17;5.15;;;;;;;;;;5021788;28;20103;-66
2022/06/30 11:24:13;;;;;;;17.17;5.88;;;;;;;;;;5020310;28;20543;-66
2022/06/30 11:29:28;;;;;;;10.02;2.30;;;;;;;;;;5027271;28;20053;-72
2022/06/30 11:31:59;;;;;;;9.93;2.20;;;;;;;;;;5023374;28;20048;-66
2022/06/30 11:34:25;;;;;;;10.27;2.42;;;;;;;;;;5020467;28;20045;-65
2022/06/30 11:36:52;;;;;;;8.90;2.15;;;;;;;;;;5023988;28;20056;-68
2022/06/30 11:39:19;;;;;;;6.88;2.03;;;;;;;;;;5024146;28;20521;-65
2022/06/30 11:42:03;;;;;;;9.27;2.33;;;;;;;;;;5024648;28;20107;-67
2022/06/30 11:44:34;;;;;;;13.30;2.42;;;;;;;;;;5024826;28;20107;-66
2022/06/30 11:47:06;;;;;;;9.57;2.50;;;;;;;;;;5020767;28;20462;-66
2022/06/30 11:49:51;;;;;;;8.25;2.20;;;;;;;;;;5026139;28;20064;-68
2022/06/30 11:52:31;;;;;;;11.60;2.30;;;;;;;;;;5024923;28;20052;-66
2022/06/30 11:55:01;;;;;;;10.13;2.60;;;;;;;;;;5025255;28;20129;-64
2022/06/30 11:57:30;;;;;;;12.10;2.50;;;;;;;;;;5027087;28;20116;-69
2022/06/30 12:00:04;;;;;;;8.55;2.58;;;;;;;;;;5027873;28;20120;-66
2022/06/30 12:02:32;;;;;;;11.18;2.55;;;;;;;;;;5029034;28;20058;-64
2022/06/30 12:04:59;;;;;;;11.40;2.75;;;;;;;;;;5031181;28;20041;-66
2022/06/30 12:07:28;;;;;;;11.52;3.05;;;;;;;;;;5031404;28;20140;-66
2022/06/30 12:09:55;;;;;;;10.55;2.60;;;;;;;;;;5025921;28;20053;-67
2022/06/30 12:12:27;;;;;;;7.88;2.55;;;;;;;;;;5028850;28;20491;-66
2022/06/30 12:14:57;;;;;;;9.98;2.63;;;;;;;;;;5019919;28;20057;-65
2022/06/30 12:17:24;;;;;;;9.05;2.85;;;;;;;;;;5026714;28;20049;-66
2022/06/30 12:19:51;;;;;;;10.43;3.08;;;;;;;;;;5029381;28;20054;-66
2022/06/30 12:22:19;;;;;;;14.70;5.10;;;;;;;;;;5028970;28;20132;-69
2022/06/30 12:24:46;;;;;;;11.57;4.43;;;;;;;;;;5028472;28;20084;-67
2022/06/30 12:27:28;;;;;;;17.65;3.95;;;;;;;;;;5027423;28;20045;-64
2022/06/30 12:29:56;;;;;;;11.80;3.00;;;;;;;;;;5027805;28;20533;-66
2022/06/30 12:32:22;;;;;;;13.43;3.47;;;;;;;;;;5022332;28;20076;-65
2022/06/30 12:34:53;;;;;;;10.18;3.60;;;;;;;;;;5025577;28;20155;-68
2022/06/30 12:37:33;;;;;;;13.02;3.33;;;;;;;;;;5027159;28;20064;-65
2022/06/30 12:40:36;;;;;;;9.90;2.83;;;;;;;;;;5027704;28;20073;-63
2022/06/30 12:43:02;;;;;;;10.15;2.90;;;;;;;;;;5037684;28;20049;-65
2022/06/30 12:46:04;;;;;;;11.02;2.97;;;;;;;;;;5030007;28;20064;-64
2022/06/30 12:48:53;;;;;;;10.07;3.00;;;;;;;;;;5026983;28;20054;-64
2022/06/30 12:51:28;;;;;;;15.07;3.47;;;;;;;;;;5022764;28;20145;-66
2022/06/30 12:54:03;;;;;;;10.52;3.05;;;;;;;;;;5028536;28;20049;-69
2022/06/30 12:56:30;;;;;;;9.77;3.08;;;;;;;;;;5028803;28;20407;-65
2022/06/30 12:59:09;;;;;;;12.27;3.05;;;;;;;;;;5029908;28;20048;-64
2022/06/30 13:01:44;;;;;;;10.00;2.88;;;;;;;;;;5026821;28;20099;-65
2022/06/30 13:04:16;;;;;;;10.10;3.10;;;;;;;;;;5026780;28;20037;-65
2022/06/30 13:06:44;;;;;;;10.10;3.05;;;;;;;;;;5027347;28;20091;-64
2022/06/30 13:09:13;;;;;;;11.85;3.10;;;;;;;;;;5030622;28;20049;-64
2022/06/30 13:11:50;;;;;;;12.70;3.58;;;;;;;;;;5028499;28;20064;-65
2022/06/30 13:14:19;;;;;;;10.27;3.03;;;;;;;;;;5030234;28;20123;-65
2022/06/30 13:16:46;;;;;;;15.88;3.45;;;;;;;;;;5026606;28;20050;-64
2022/06/30 13:19:12;;;;;;;10.70;2.78;;;;;;;;;;5027441;28;20132;-65
2022/06/30 13:21:39;;;;;;;8.55;2.50;;;;;;;;;;5027833;28;20096;-65
2022/06/30 13:24:09;;;;;;;9.48;3.00;;;;;;;;;;5027739;28;20068;-64
2022/06/30 13:26:36;;;;;;;8.40;2.92;;;;;;;;;;5027728;28;20129;-65
2022/06/30 13:29:03;;;;;;;12.43;2.90;;;;;;;;;;5027532;28;20045;-66
2022/06/30 13:31:32;;;;;;;11.32;3.33;;;;;;;;;;5027597;28;20058;-65
2022/06/30 13:34:02;;;;;;;11.23;3.00;;;;;;;;;;5026717;28;20095;-65
2022/06/30 13:36:31;;;;;;;8.25;2.80;;;;;;;;;;5018298;28;20060;-67
2022/06/30 13:38:58;;;;;;;8.85;2.85;;;;;;;;;;5058028;28;20049;-65
2022/06/30 13:41:24;;;;;;;10.05;2.92;;;;;;;;;;5030682;28;20058;-71
2022/06/30 13:43:50;;;;;;;15.23;3.10;;;;;;;;;;5030184;28;20116;-65
2022/06/30 13:46:16;;;;;;;12.05;3.33;;;;;;;;;;5029808;28;20180;-67
2022/06/30 13:48:42;;;;;;;11.23;2.83;;;;;;;;;;5029366;28;20690;-66
2022/06/30 13:51:08;;;;;;;11.52;2.80;;;;;;;;;;5028077;28;20037;-64
2022/06/30 13:53:34;;;;;;;10.82;2.60;;;;;;;;;;5028718;28;20438;-66
2022/06/30 13:56:01;;;;;;;9.55;2.70;;;;;;;;;;5033455;28;20053;-70
2022/06/30 13:58:27;;;;;;;12.55;2.70;;;;;;;;;;5030441;28;20077;-64
2022/06/30 14:00:53;;;;;;;11.88;2.70;;;;;;;;;;5026179;28;20041;-66
2022/06/30 14:03:19;;;;;;;8.25;2.78;;;;;;;;;;5028942;28;20041;-65
2022/06/30 14:05:45;;;;;;;11.43;2.88;;;;;;;;;;5031330;28;20413;-69
2022/06/30 14:08:12;;;;;;;10.57;2.85;;;;;;;;;;5030189;28;20049;-68
2022/06/30 14:10:38;;;;;;;9.27;2.53;;;;;;;;;;5025998;28;20396;-68
2022/06/30 14:13:05;;;;;;;11.00;2.70;;;;;;;;;;5028021;28;20120;-66
2022/06/30 14:15:31;;;;;;;8.95;2.30;;;;;;;;;;5023497;28;20149;-69
2022/06/30 14:17:58;;;;;;;8.82;2.40;;;;;;;;;;5027471;28;20056;-64
2022/06/30 14:20:23;;;;;;;8.95;2.80;;;;;;;;;;5027652;28;20080;-66
2022/06/30 14:22:49;;;;;;;9.07;2.40;;;;;;;;;;5022917;28;20077;-65
2022/06/30 14:25:15;;;;;;;9.85;2.63;;;;;;;;;;5028007;28;20049;-67
2022/06/30 14:27:41;;;;;;;8.15;2.70;;;;;;;;;;5025708;28;20045;-65
2022/06/30 14:30:10;;;;;;;8.27;2.25;;;;;;;;;;5030302;28;20056;-65
2022/06/30 14:32:36;;;;;;;7.63;2.60;;;;;;;;;;5026507;28;20083;-65
2022/06/30 14:35:03;;;;;;;10.25;3.00;;;;;;;;;;5025622;28;20073;-67
2022/06/30 14:37:30;;;;;;;11.82;2.80;;;;;;;;;;5028258;28;20057;-67
2022/06/30 14:39:57;;;;;;;7.10;2.45;;;;;;;;;;5028178;28;20049;-66
2022/06/30 14:45:09;;;;;;;7.78;2.45;;;;;;;;;;5027535;28;20045;-65
2022/06/30 14:47:36;;;;;;;10.15;2.70;;;;;;;;;;5027337;28;20037;-66
2022/06/30 14:50:02;;;;;;;11.23;2.63;;;;;;;;;;5027003;28;20038;-66
2022/06/30 14:52:28;;;;;;;12.25;3.38;;;;;;;;;;5027499;28;20179;-65
2022/06/30 14:54:54;;;;;;;8.02;2.38;;;;;;;;;;5028059;28;20121;-66
2022/06/30 14:57:20;;;;;;;12.45;3.10;;;;;;;;;;5027020;28;20045;-67
2022/06/30 14:59:46;;;;;;;30.10;9.07;;;;;;;;;;5029548;28;20045;-67
2022/06/30 15:02:12;;;;;;;21.13;5.88;;;;;;;;;;5028223;28;20047;-70
2022/06/30 15:04:38;;;;;;;24.60;6.95;;;;;;;;;;5027980;28;20041;-70